createdAt,value
2022-12-31T00:00:29.253Z,8.56
2022-12-31T00:01:32.124Z,8.64
2022-12-31T00:02:33.728Z,8.59
2022-12-31T00:03:35.356Z,8.60
2022-12-31T00:04:36.890Z,8.58
2022-12-31T00:05:38.429Z,8.55
2022-12-31T00:06:39.991Z,8.55
2022-12-31T00:08:42.154Z,8.54
2022-12-31T00:09:43.654Z,8.69
2022-12-31T00:10:45.201Z,8.64
2022-12-31T00:11:46.809Z,8.77
2022-12-31T00:12:48.411Z,8.59
2022-12-31T00:13:50.963Z,8.57
2022-12-31T00:14:52.505Z,8.60
2022-12-31T00:15:54.046Z,8.68
2022-12-31T00:16:56.917Z,8.82
2022-12-31T00:17:58.438Z,8.73
2022-12-31T00:19:00.950Z,8.69
2022-12-31T00:20:02.587Z,8.72
2022-12-31T00:21:08.585Z,8.75
2022-12-31T00:22:10.128Z,8.83
2022-12-31T00:23:11.726Z,8.83
2022-12-31T00:24:13.233Z,8.83
2022-12-31T00:25:14.893Z,8.82
2022-12-31T00:26:18.393Z,8.85
2022-12-31T00:27:19.910Z,8.96
2022-12-31T00:28:21.395Z,8.86
2022-12-31T00:29:23.104Z,8.84
2022-12-31T00:30:24.573Z,8.80
2022-12-31T00:31:27.775Z,8.81
2022-12-31T00:32:45.920Z,8.84
2022-12-31T00:33:47.729Z,8.77
2022-12-31T00:34:49.284Z,8.81
2022-12-31T00:35:50.766Z,8.96
2022-12-31T00:36:53.277Z,8.95
2022-12-31T00:37:54.763Z,8.84
2022-12-31T00:38:57.802Z,9.00
2022-12-31T00:39:59.364Z,9.07
2022-12-31T00:41:01.055Z,9.05
2022-12-31T00:42:02.565Z,8.91
2022-12-31T00:43:04.056Z,8.91
2022-12-31T00:44:05.771Z,8.98
2022-12-31T00:45:08.250Z,9.01
2022-12-31T00:46:11.212Z,8.93
2022-12-31T00:47:12.740Z,9.05
2022-12-31T00:48:15.575Z,8.99
2022-12-31T00:49:17.532Z,9.06
2022-12-31T00:50:19.040Z,8.87
2022-12-31T00:51:22.611Z,9.01
2022-12-31T00:52:24.121Z,9.07
2022-12-31T00:53:25.948Z,9.00
2022-12-31T00:54:27.478Z,8.89
2022-12-31T00:55:30.281Z,9.07
2022-12-31T00:56:32.281Z,9.04
2022-12-31T00:57:33.844Z,9.04
2022-12-31T00:58:35.774Z,9.12
2022-12-31T00:59:37.246Z,9.09
2022-12-31T01:00:39.319Z,9.11
2022-12-31T01:01:42.044Z,9.08
2022-12-31T01:02:43.853Z,8.85
2022-12-31T01:03:48.546Z,8.97
2022-12-31T01:04:50.233Z,9.11
2022-12-31T01:05:52.189Z,9.07
2022-12-31T01:06:53.707Z,9.05
2022-12-31T01:07:55.369Z,9.18
2022-12-31T01:08:56.947Z,9.16
2022-12-31T01:09:58.441Z,9.05
2022-12-31T01:11:01.221Z,9.08
2022-12-31T01:12:02.730Z,9.08
2022-12-31T01:13:04.313Z,9.08
2022-12-31T01:14:19.272Z,9.03
2022-12-31T01:15:20.757Z,8.98
2022-12-31T01:16:24.384Z,9.07
2022-12-31T01:17:25.863Z,9.01
2022-12-31T01:18:27.366Z,9.04
2022-12-31T01:19:30.249Z,8.94
2022-12-31T01:20:36.065Z,8.97
2022-12-31T01:21:38.820Z,9.17
2022-12-31T01:22:40.305Z,9.12
2022-12-31T01:23:42.402Z,9.06
2022-12-31T01:24:43.947Z,9.02
2022-12-31T01:25:45.444Z,9.08
2022-12-31T01:26:47.672Z,9.07
2022-12-31T01:27:49.186Z,9.21
2022-12-31T01:28:50.805Z,9.21
2022-12-31T01:29:52.336Z,9.19
2022-12-31T01:30:54.000Z,9.10
2022-12-31T01:31:55.508Z,9.22
2022-12-31T01:32:57.481Z,9.16
2022-12-31T01:33:58.980Z,9.16
2022-12-31T01:35:01.889Z,9.27
2022-12-31T01:36:05.157Z,9.26
2022-12-31T01:37:06.629Z,9.32
2022-12-31T01:38:08.124Z,9.14
2022-12-31T01:39:11.472Z,9.28
2022-12-31T01:40:13.209Z,9.29
2022-12-31T01:41:17.551Z,9.31
2022-12-31T01:42:19.099Z,9.11
2022-12-31T01:43:21.055Z,9.15
2022-12-31T01:44:47.146Z,9.13
2022-12-31T01:45:52.400Z,9.14
2022-12-31T01:46:56.481Z,9.12
2022-12-31T01:48:00.030Z,9.14
2022-12-31T01:49:04.727Z,9.21
2022-12-31T01:50:16.148Z,9.10
2022-12-31T01:51:17.914Z,9.16
2022-12-31T01:52:22.022Z,9.09
2022-12-31T01:53:23.599Z,9.12
2022-12-31T01:54:28.800Z,8.90
2022-12-31T01:55:35.772Z,9.03
2022-12-31T01:56:40.293Z,9.06
2022-12-31T01:57:43.806Z,8.93
2022-12-31T01:58:49.898Z,8.91
2022-12-31T01:59:53.127Z,8.94
2022-12-31T02:00:57.430Z,9.01
2022-12-31T02:01:59.661Z,8.81
2022-12-31T02:03:01.897Z,8.96
2022-12-31T02:04:19.858Z,8.98
2022-12-31T02:05:29.109Z,9.11
2022-12-31T02:06:37.345Z,9.13
2022-12-31T02:07:39.404Z,8.99
2022-12-31T02:08:42.402Z,9.08
2022-12-31T02:09:44.316Z,9.02
2022-12-31T02:10:45.797Z,9.07
2022-12-31T02:11:47.371Z,8.97
2022-12-31T02:12:49.111Z,9.01
2022-12-31T02:13:57.973Z,9.05
2022-12-31T02:15:00.046Z,9.05
2022-12-31T02:16:10.602Z,9.07
2022-12-31T02:17:23.216Z,8.99
2022-12-31T02:18:35.966Z,8.99
2022-12-31T02:20:13.442Z,9.00
2022-12-31T02:21:39.502Z,9.07
2022-12-31T02:22:59.366Z,9.06
2022-12-31T02:24:29.549Z,9.07
2022-12-31T02:25:50.222Z,9.04
2022-12-31T02:26:59.526Z,9.08
2022-12-31T02:28:14.419Z,9.10
2022-12-31T02:29:40.229Z,9.07
2022-12-31T02:30:47.777Z,9.03
2022-12-31T02:31:53.451Z,9.04
2022-12-31T02:33:11.772Z,9.11
2022-12-31T02:34:20.624Z,9.14
2022-12-31T02:35:28.584Z,9.18
2022-12-31T02:36:34.468Z,9.10
2022-12-31T02:37:37.924Z,9.00
2022-12-31T02:38:43.063Z,9.03
2022-12-31T02:39:44.782Z,9.16
2022-12-31T02:40:46.567Z,8.94
2022-12-31T02:41:48.514Z,9.03
2022-12-31T02:42:55.089Z,9.12
2022-12-31T02:43:57.167Z,9.19
2022-12-31T02:45:01.673Z,9.11
2022-12-31T02:46:12.874Z,9.11
2022-12-31T02:47:24.703Z,9.01
2022-12-31T02:48:39.860Z,9.01
2022-12-31T02:49:53.613Z,8.99
2022-12-31T02:51:06.552Z,9.00
2022-12-31T02:54:06.102Z,8.95
2022-12-31T02:55:15.980Z,8.98
2022-12-31T02:56:24.415Z,9.04
2022-12-31T02:57:30.660Z,9.11
2022-12-31T02:58:41.411Z,9.13
2022-12-31T02:59:51.831Z,9.07
2022-12-31T03:00:57.950Z,9.28
2022-12-31T03:02:06.458Z,9.19
2022-12-31T03:03:10.468Z,9.15
2022-12-31T03:04:13.759Z,9.08
2022-12-31T03:05:18.913Z,9.17
2022-12-31T03:06:20.436Z,9.08
2022-12-31T03:07:24.744Z,9.21
2022-12-31T03:08:26.714Z,9.24
2022-12-31T03:09:28.235Z,9.21
2022-12-31T03:10:32.550Z,9.26
2022-12-31T03:11:34.061Z,9.26
2022-12-31T03:12:36.138Z,9.18
2022-12-31T03:13:37.617Z,9.24
2022-12-31T03:14:39.078Z,9.29
2022-12-31T03:15:40.556Z,9.35
2022-12-31T03:16:42.133Z,9.27
2022-12-31T03:17:45.140Z,9.40
2022-12-31T03:18:46.638Z,9.30
2022-12-31T03:19:48.223Z,9.32
2022-12-31T03:20:51.184Z,9.34
2022-12-31T03:21:52.792Z,9.29
2022-12-31T03:22:54.319Z,9.28
2022-12-31T03:23:55.816Z,9.39
2022-12-31T03:25:00.047Z,9.18
2022-12-31T03:26:02.925Z,9.35
2022-12-31T03:27:04.454Z,9.33
2022-12-31T03:28:08.248Z,9.36
2022-12-31T03:29:09.772Z,9.36
2022-12-31T03:30:13.256Z,9.44
2022-12-31T03:31:14.895Z,9.48
2022-12-31T03:32:16.451Z,9.43
2022-12-31T03:33:20.718Z,9.46
2022-12-31T03:34:22.232Z,9.37
2022-12-31T03:35:25.131Z,9.46
2022-12-31T03:36:26.611Z,9.49
2022-12-31T03:37:28.084Z,9.50
2022-12-31T03:38:29.621Z,9.63
2022-12-31T03:39:31.075Z,9.59
2022-12-31T03:40:36.778Z,9.51
2022-12-31T03:41:38.264Z,9.48
2022-12-31T03:42:40.084Z,9.45
2022-12-31T03:43:41.576Z,9.45
2022-12-31T03:44:43.646Z,9.40
2022-12-31T03:45:47.477Z,9.34
2022-12-31T03:46:48.955Z,9.42
2022-12-31T03:47:53.415Z,9.45
2022-12-31T03:48:56.231Z,9.23
2022-12-31T03:49:57.729Z,9.42
2022-12-31T03:50:59.262Z,9.26
2022-12-31T03:52:00.755Z,9.39
2022-12-31T03:53:02.341Z,9.45
2022-12-31T03:54:03.844Z,9.38
2022-12-31T03:55:06.465Z,9.44
2022-12-31T03:56:07.985Z,9.36
2022-12-31T03:57:09.691Z,9.25
2022-12-31T03:58:11.549Z,9.34
2022-12-31T03:59:13.110Z,9.32
2022-12-31T04:00:17.546Z,9.35
2022-12-31T04:01:19.089Z,9.38
2022-12-31T04:02:26.307Z,9.40
2022-12-31T04:03:29.942Z,9.48
2022-12-31T04:04:32.859Z,9.49
2022-12-31T04:05:34.395Z,9.58
2022-12-31T04:06:35.941Z,9.51
2022-12-31T04:07:37.858Z,9.59
2022-12-31T04:08:39.339Z,9.61
2022-12-31T04:09:40.832Z,9.60
2022-12-31T04:10:42.331Z,9.65
2022-12-31T04:11:43.787Z,9.60
2022-12-31T04:12:54.428Z,9.53
2022-12-31T04:13:55.924Z,9.51
2022-12-31T04:14:57.482Z,9.62
2022-12-31T04:15:59.046Z,9.60
2022-12-31T04:17:00.666Z,9.61
2022-12-31T04:18:02.382Z,9.66
2022-12-31T04:19:04.009Z,9.58
2022-12-31T04:20:08.460Z,9.63
2022-12-31T04:21:10.002Z,9.73
2022-12-31T04:22:11.530Z,9.71
2022-12-31T04:23:13.046Z,9.63
2022-12-31T04:24:14.756Z,9.63
2022-12-31T04:25:34.795Z,9.57
2022-12-31T04:26:36.381Z,9.63
2022-12-31T04:27:38.956Z,9.71
2022-12-31T04:28:40.486Z,9.69
2022-12-31T04:29:41.970Z,9.69
2022-12-31T04:30:43.521Z,9.67
2022-12-31T04:31:45.148Z,9.64
2022-12-31T04:32:46.664Z,9.67
2022-12-31T04:33:48.242Z,9.74
2022-12-31T04:34:49.727Z,9.87
2022-12-31T04:35:52.659Z,9.84
2022-12-31T04:36:54.175Z,9.82
2022-12-31T04:37:55.654Z,9.74
2022-12-31T04:38:57.242Z,9.80
2022-12-31T04:40:05.182Z,9.83
2022-12-31T04:41:07.600Z,9.85
2022-12-31T04:42:09.100Z,9.81
2022-12-31T04:43:10.595Z,9.82
2022-12-31T04:44:12.097Z,9.88
2022-12-31T04:45:13.628Z,9.77
2022-12-31T04:46:16.190Z,9.95
2022-12-31T04:47:23.427Z,9.99
2022-12-31T04:48:25.425Z,9.97
2022-12-31T04:49:26.894Z,9.94
2022-12-31T04:50:28.421Z,9.90
2022-12-31T04:51:31.592Z,9.85
2022-12-31T04:52:38.625Z,9.93
2022-12-31T04:53:43.832Z,9.91
2022-12-31T04:54:45.325Z,9.83
2022-12-31T04:55:46.811Z,9.87
2022-12-31T04:56:48.273Z,9.94
2022-12-31T04:57:49.761Z,9.77
2022-12-31T04:58:51.319Z,9.88
2022-12-31T04:59:52.817Z,9.95
2022-12-31T05:00:54.485Z,9.91
2022-12-31T05:01:56.253Z,9.83
2022-12-31T05:02:57.954Z,9.59
2022-12-31T05:03:59.437Z,9.74
2022-12-31T05:05:00.902Z,9.76
2022-12-31T05:06:03.615Z,9.67
2022-12-31T05:07:06.518Z,9.74
2022-12-31T05:08:08.110Z,9.80
2022-12-31T05:09:09.598Z,9.80
2022-12-31T05:10:11.106Z,9.69
2022-12-31T05:11:12.706Z,9.70
2022-12-31T05:12:14.382Z,9.71
2022-12-31T05:13:16.343Z,9.69
2022-12-31T05:14:17.922Z,9.68
2022-12-31T05:15:19.464Z,9.74
2022-12-31T05:16:21.060Z,9.65
2022-12-31T05:17:22.568Z,9.68
2022-12-31T05:18:24.257Z,9.62
2022-12-31T05:19:25.783Z,9.74
2022-12-31T05:20:27.289Z,9.73
2022-12-31T05:21:28.829Z,9.75
2022-12-31T05:22:31.684Z,9.71
2022-12-31T05:23:33.269Z,9.71
2022-12-31T05:24:34.752Z,9.62
2022-12-31T05:25:36.570Z,9.65
2022-12-31T05:26:38.152Z,9.60
2022-12-31T05:27:39.676Z,9.64
2022-12-31T05:28:41.383Z,9.68
2022-12-31T05:29:42.855Z,9.65
2022-12-31T05:30:44.980Z,9.59
2022-12-31T05:31:46.508Z,9.73
2022-12-31T05:32:48.047Z,9.62
2022-12-31T05:33:49.544Z,9.68
2022-12-31T05:34:51.054Z,9.73
2022-12-31T05:35:52.543Z,9.73
2022-12-31T05:36:54.045Z,9.60
2022-12-31T05:37:56.876Z,9.72
2022-12-31T05:38:58.347Z,9.76
2022-12-31T05:40:00.041Z,9.66
2022-12-31T05:41:03.388Z,9.67
2022-12-31T05:42:05.000Z,9.59
2022-12-31T05:43:07.244Z,9.66
2022-12-31T05:44:10.699Z,9.61
2022-12-31T05:45:12.691Z,9.67
2022-12-31T05:46:14.210Z,9.74
2022-12-31T05:47:16.160Z,9.66
2022-12-31T05:48:17.645Z,9.65
2022-12-31T05:49:19.151Z,9.67
2022-12-31T05:50:38.827Z,9.83
2022-12-31T05:51:40.361Z,9.78
2022-12-31T05:52:47.285Z,9.72
2022-12-31T05:53:50.546Z,9.76
2022-12-31T05:54:52.055Z,9.78
2022-12-31T05:55:53.524Z,9.78
2022-12-31T05:56:55.051Z,9.84
2022-12-31T05:57:56.592Z,9.89
2022-12-31T05:58:58.123Z,9.82
2022-12-31T05:59:59.696Z,9.73
2022-12-31T06:01:01.230Z,9.67
2022-12-31T06:02:02.792Z,9.78
2022-12-31T06:03:04.507Z,9.74
2022-12-31T06:04:06.160Z,9.67
2022-12-31T06:05:08.515Z,9.73
2022-12-31T06:06:10.037Z,9.87
2022-12-31T06:07:11.536Z,9.86
2022-12-31T06:08:12.994Z,9.77
2022-12-31T06:09:17.267Z,9.64
2022-12-31T06:10:19.832Z,9.69
2022-12-31T06:11:21.331Z,9.76
2022-12-31T06:12:22.807Z,9.81
2022-12-31T06:13:24.331Z,9.76
2022-12-31T06:14:25.932Z,9.82
2022-12-31T06:15:27.439Z,9.65
2022-12-31T06:16:28.935Z,9.71
2022-12-31T06:17:30.637Z,9.55
2022-12-31T06:18:32.113Z,9.74
2022-12-31T06:19:33.573Z,9.71
2022-12-31T06:20:36.467Z,9.64
2022-12-31T06:21:37.966Z,9.65
2022-12-31T06:22:39.516Z,9.74
2022-12-31T06:23:41.041Z,9.57
2022-12-31T06:24:44.015Z,9.69
2022-12-31T06:25:45.809Z,9.47
2022-12-31T06:26:47.348Z,9.58
2022-12-31T06:27:48.847Z,9.48
2022-12-31T06:28:50.385Z,9.49
2022-12-31T06:29:51.858Z,9.44
2022-12-31T06:30:59.598Z,9.48
2022-12-31T06:32:01.139Z,9.30
2022-12-31T06:33:11.795Z,9.34
2022-12-31T06:34:13.288Z,9.32
2022-12-31T06:35:14.792Z,9.41
2022-12-31T06:36:16.419Z,9.40
2022-12-31T06:37:17.995Z,9.50
2022-12-31T06:38:19.531Z,9.44
2022-12-31T06:39:21.019Z,9.38
2022-12-31T06:40:24.037Z,9.49
2022-12-31T06:41:25.492Z,9.41
2022-12-31T06:42:28.256Z,9.48
2022-12-31T06:43:29.960Z,9.50
2022-12-31T06:44:31.461Z,9.51
2022-12-31T06:45:33.006Z,9.51
2022-12-31T06:46:34.559Z,9.44
2022-12-31T06:47:36.093Z,9.42
2022-12-31T06:48:38.608Z,9.44
2022-12-31T06:49:58.366Z,9.45
2022-12-31T06:51:03.815Z,9.44
2022-12-31T06:52:05.319Z,9.27
2022-12-31T06:53:09.699Z,9.41
2022-12-31T06:54:11.735Z,9.46
2022-12-31T06:55:14.403Z,9.48
2022-12-31T06:56:19.616Z,9.48
2022-12-31T06:57:22.909Z,9.43
2022-12-31T06:58:24.932Z,9.43
2022-12-31T06:59:28.473Z,9.40
2022-12-31T07:00:30.467Z,9.44
2022-12-31T07:01:49.855Z,9.32
2022-12-31T07:03:30.397Z,9.43
2022-12-31T07:05:04.753Z,9.38
2022-12-31T07:06:11.675Z,9.41
2022-12-31T07:07:20.978Z,9.41
2022-12-31T07:08:37.362Z,9.47
2022-12-31T07:09:51.335Z,9.42
2022-12-31T07:10:59.506Z,9.49
2022-12-31T07:12:06.487Z,9.46
2022-12-31T07:13:21.954Z,9.49
2022-12-31T07:14:31.511Z,9.39
2022-12-31T07:16:02.888Z,9.39
2022-12-31T07:17:18.402Z,9.47
2022-12-31T07:18:41.038Z,9.39
2022-12-31T07:19:57.484Z,9.29
2022-12-31T07:20:59.938Z,9.36
2022-12-31T07:22:02.934Z,9.25
2022-12-31T07:23:04.964Z,9.29
2022-12-31T07:24:07.657Z,9.39
2022-12-31T07:25:13.382Z,9.41
2022-12-31T07:26:30.830Z,9.40
2022-12-31T07:28:06.049Z,9.48
2022-12-31T07:29:14.675Z,9.33
2022-12-31T07:30:19.605Z,9.25
2022-12-31T07:31:33.915Z,9.30
2022-12-31T07:33:00.476Z,9.32
2022-12-31T07:34:08.146Z,9.39
2022-12-31T07:35:21.490Z,9.37
2022-12-31T07:36:35.204Z,9.37
2022-12-31T07:37:42.441Z,9.38
2022-12-31T07:38:53.139Z,9.30
2022-12-31T07:40:03.290Z,9.29
2022-12-31T07:41:16.719Z,9.38
2022-12-31T07:42:23.971Z,9.28
2022-12-31T07:43:34.400Z,9.34
2022-12-31T07:44:58.248Z,9.26
2022-12-31T07:46:07.411Z,9.30
2022-12-31T07:47:20.595Z,9.23
2022-12-31T07:48:24.801Z,9.29
2022-12-31T07:49:28.628Z,9.29
2022-12-31T07:50:30.939Z,9.29
2022-12-31T07:51:33.007Z,9.33
2022-12-31T07:52:35.101Z,9.37
2022-12-31T07:53:36.762Z,9.39
2022-12-31T07:54:38.240Z,9.21
2022-12-31T07:55:39.790Z,9.44
2022-12-31T07:56:42.027Z,9.32
2022-12-31T07:57:52.283Z,9.39
2022-12-31T07:59:06.224Z,9.45
2022-12-31T08:00:12.919Z,9.46
2022-12-31T08:01:19.443Z,9.52
2022-12-31T08:02:30.590Z,9.49
2022-12-31T08:03:47.655Z,9.51
2022-12-31T08:04:57.980Z,9.56
2022-12-31T08:06:10.409Z,9.51
2022-12-31T08:07:21.364Z,9.45
2022-12-31T08:08:35.176Z,9.49
2022-12-31T08:09:46.736Z,9.50
2022-12-31T08:11:00.745Z,9.47
2022-12-31T08:12:02.825Z,9.50
2022-12-31T08:13:10.189Z,9.50
2022-12-31T08:14:14.654Z,9.52
2022-12-31T08:15:30.303Z,9.67
2022-12-31T08:16:37.651Z,9.62
2022-12-31T08:17:39.607Z,9.66
2022-12-31T08:18:41.650Z,9.69
2022-12-31T08:19:43.882Z,9.73
2022-12-31T08:20:55.543Z,9.65
2022-12-31T08:22:18.487Z,9.61
2022-12-31T08:23:28.791Z,9.71
2022-12-31T08:24:40.219Z,9.67
2022-12-31T08:25:51.080Z,9.58
2022-12-31T08:27:02.025Z,9.74
2022-12-31T08:28:13.605Z,9.82
2022-12-31T08:30:57.989Z,9.73
2022-12-31T08:32:08.279Z,9.55
2022-12-31T08:33:17.027Z,9.65
2022-12-31T08:34:29.783Z,9.84
2022-12-31T08:35:47.399Z,9.99
2022-12-31T08:36:55.168Z,10.00
2022-12-31T08:38:08.423Z,10.09
2022-12-31T08:39:23.592Z,10.02
2022-12-31T08:40:31.472Z,10.10
2022-12-31T08:41:42.946Z,10.02
2022-12-31T08:43:00.868Z,10.23
2022-12-31T08:44:12.318Z,10.20
2022-12-31T08:45:19.959Z,10.23
2022-12-31T08:46:27.890Z,10.17
2022-12-31T08:47:38.679Z,10.27
2022-12-31T08:48:42.645Z,10.15
2022-12-31T08:49:44.565Z,10.33
2022-12-31T08:50:46.556Z,10.32
2022-12-31T08:51:48.554Z,10.23
2022-12-31T08:52:50.568Z,10.42
2022-12-31T08:53:53.315Z,10.37
2022-12-31T08:54:55.308Z,10.52
2022-12-31T08:56:07.735Z,10.24
2022-12-31T08:57:19.992Z,10.63
2022-12-31T08:58:34.267Z,10.66
2022-12-31T08:59:41.348Z,10.57
2022-12-31T09:00:46.356Z,10.62
2022-12-31T09:02:01.578Z,10.74
2022-12-31T09:03:19.031Z,10.56
2022-12-31T09:04:30.888Z,10.82
2022-12-31T09:05:38.886Z,10.97
2022-12-31T09:06:46.863Z,10.94
2022-12-31T09:08:00.846Z,11.09
2022-12-31T09:09:10.492Z,11.06
2022-12-31T09:10:18.160Z,11.17
2022-12-31T09:11:28.264Z,11.11
2022-12-31T09:12:35.631Z,11.21
2022-12-31T09:13:54.152Z,11.13
2022-12-31T09:15:03.702Z,11.23
2022-12-31T09:16:13.886Z,11.21
2022-12-31T09:17:38.104Z,11.30
2022-12-31T09:18:41.488Z,11.39
2022-12-31T09:19:46.584Z,11.52
2022-12-31T09:20:48.469Z,11.39
2022-12-31T09:21:50.393Z,11.49
2022-12-31T09:22:53.024Z,11.33
2022-12-31T09:23:55.163Z,11.37
2022-12-31T09:24:56.988Z,11.35
2022-12-31T09:26:06.126Z,11.36
2022-12-31T09:27:15.543Z,11.34
2022-12-31T09:28:28.525Z,11.46
2022-12-31T09:29:46.421Z,11.38
2022-12-31T09:30:54.001Z,11.14
2022-12-31T09:32:06.178Z,11.21
2022-12-31T09:33:12.392Z,11.21
2022-12-31T09:34:23.547Z,11.27
2022-12-31T09:35:35.332Z,11.07
2022-12-31T09:36:41.791Z,11.22
2022-12-31T09:37:46.491Z,11.12
2022-12-31T09:38:52.715Z,11.25
2022-12-31T09:39:59.348Z,11.33
2022-12-31T09:41:36.651Z,11.43
2022-12-31T09:43:33.434Z,11.45
2022-12-31T09:45:02.844Z,11.42
2022-12-31T09:46:23.778Z,11.37
2022-12-31T09:47:50.833Z,11.37
2022-12-31T09:49:20.414Z,11.48
2022-12-31T09:50:51.274Z,11.33
2022-12-31T09:52:07.716Z,11.40
2022-12-31T09:53:31.705Z,11.41
2022-12-31T09:54:54.052Z,11.48
2022-12-31T09:56:02.780Z,11.57
2022-12-31T09:57:22.666Z,11.51
2022-12-31T09:58:37.962Z,11.66
2022-12-31T09:59:48.209Z,11.76
2022-12-31T10:00:53.143Z,11.80
2022-12-31T10:01:57.548Z,11.80
2022-12-31T10:03:25.386Z,11.86
2022-12-31T10:04:52.481Z,11.82
2022-12-31T10:06:07.392Z,11.82
2022-12-31T10:07:24.717Z,11.94
2022-12-31T10:08:43.030Z,11.85
2022-12-31T10:09:59.718Z,12.06
2022-12-31T10:11:10.478Z,12.15
2022-12-31T10:12:37.466Z,12.13
2022-12-31T10:13:53.614Z,12.29
2022-12-31T10:15:14.324Z,12.00
2022-12-31T10:16:28.260Z,12.04
2022-12-31T10:17:42.902Z,12.20
2022-12-31T10:19:03.887Z,12.27
2022-12-31T10:20:33.361Z,12.18
2022-12-31T10:21:52.333Z,12.06
2022-12-31T10:23:20.853Z,12.12
2022-12-31T10:24:42.647Z,11.96
2022-12-31T10:26:04.565Z,12.26
2022-12-31T10:27:19.452Z,12.36
2022-12-31T10:28:30.914Z,12.37
2022-12-31T10:29:39.456Z,12.24
2022-12-31T10:30:50.201Z,12.10
2022-12-31T10:32:05.518Z,12.37
2022-12-31T10:33:15.359Z,12.34
2022-12-31T10:34:26.413Z,12.35
2022-12-31T10:35:36.081Z,12.39
2022-12-31T10:36:53.758Z,12.39
2022-12-31T10:38:05.870Z,12.65
2022-12-31T10:39:24.452Z,12.43
2022-12-31T10:40:47.101Z,12.43
2022-12-31T10:42:32.189Z,12.45
2022-12-31T10:44:14.263Z,12.44
2022-12-31T10:45:42.136Z,12.58
2022-12-31T10:47:07.717Z,12.64
2022-12-31T10:48:34.278Z,12.56
2022-12-31T10:50:21.692Z,12.54
2022-12-31T10:51:45.169Z,12.66
2022-12-31T10:53:16.891Z,12.55
2022-12-31T10:54:43.502Z,12.51
2022-12-31T10:56:00.869Z,12.67
2022-12-31T10:57:39.832Z,12.76
2022-12-31T10:59:15.858Z,12.78
2022-12-31T11:00:20.127Z,12.91
2022-12-31T11:01:33.249Z,12.92
2022-12-31T11:03:25.154Z,12.76
2022-12-31T11:04:58.553Z,12.94
2022-12-31T11:06:30.859Z,12.98
2022-12-31T11:07:52.361Z,12.97
2022-12-31T11:09:39.759Z,13.10
2022-12-31T11:11:00.795Z,13.16
2022-12-31T11:12:11.751Z,13.10
2022-12-31T11:13:58.959Z,12.99
2022-12-31T11:15:15.128Z,13.03
2022-12-31T11:16:44.755Z,12.99
2022-12-31T11:18:00.303Z,12.90
2022-12-31T11:19:12.706Z,13.10
2022-12-31T11:20:48.485Z,13.03
2022-12-31T11:22:10.761Z,13.24
2022-12-31T11:23:28.221Z,13.21
2022-12-31T11:24:41.536Z,13.28
2022-12-31T11:25:52.730Z,13.30
2022-12-31T11:27:13.983Z,13.21
2022-12-31T11:28:39.551Z,13.45
2022-12-31T11:30:01.283Z,13.41
2022-12-31T11:31:15.166Z,13.36
2022-12-31T11:32:29.904Z,13.30
2022-12-31T11:33:50.551Z,13.52
2022-12-31T11:35:20.689Z,13.54
2022-12-31T11:36:33.039Z,13.55
2022-12-31T11:37:45.096Z,13.14
2022-12-31T11:38:51.551Z,13.34
2022-12-31T11:40:02.037Z,13.34
2022-12-31T11:41:07.481Z,13.47
2022-12-31T11:42:20.293Z,13.19
2022-12-31T11:43:27.326Z,13.47
2022-12-31T11:44:36.274Z,13.33
2022-12-31T11:46:08.285Z,13.35
2022-12-31T11:48:12.177Z,13.39
2022-12-31T11:49:43.165Z,13.37
2022-12-31T11:50:54.989Z,13.45
2022-12-31T11:52:27.162Z,13.53
2022-12-31T11:53:57.419Z,13.56
2022-12-31T11:55:35.785Z,13.53
2022-12-31T11:56:40.217Z,13.53
2022-12-31T11:57:48.667Z,13.47
2022-12-31T11:58:52.892Z,13.59
2022-12-31T11:59:57.637Z,13.67
2022-12-31T12:01:04.300Z,13.71
2022-12-31T12:02:23.238Z,13.72
2022-12-31T12:03:25.246Z,13.71
2022-12-31T12:04:27.309Z,13.78
2022-12-31T12:05:29.538Z,13.64
2022-12-31T12:06:32.539Z,13.65
2022-12-31T12:07:34.049Z,13.77
2022-12-31T12:08:37.789Z,13.65
2022-12-31T12:09:39.940Z,13.58
2022-12-31T12:10:45.110Z,13.67
2022-12-31T12:11:46.646Z,13.74
2022-12-31T12:12:48.181Z,13.72
2022-12-31T12:13:49.820Z,13.79
2022-12-31T12:14:53.845Z,13.84
2022-12-31T12:15:57.847Z,13.92
2022-12-31T12:17:04.665Z,13.92
2022-12-31T12:18:09.839Z,13.95
2022-12-31T12:19:18.337Z,13.96
2022-12-31T12:20:25.356Z,14.01
2022-12-31T12:21:26.914Z,13.90
2022-12-31T12:22:29.477Z,13.93
2022-12-31T12:23:30.963Z,14.05
2022-12-31T12:24:33.802Z,13.85
2022-12-31T12:25:40.729Z,14.10
2022-12-31T12:26:43.463Z,14.02
2022-12-31T12:27:45.101Z,14.11
2022-12-31T12:28:46.615Z,14.26
2022-12-31T12:29:48.118Z,14.04
2022-12-31T12:30:59.898Z,14.11
2022-12-31T12:32:04.143Z,14.15
2022-12-31T12:33:15.599Z,14.07
2022-12-31T12:34:23.893Z,14.10
2022-12-31T12:35:27.755Z,14.19
2022-12-31T12:36:29.258Z,14.25
2022-12-31T12:37:32.539Z,13.96
2022-12-31T12:38:34.560Z,14.08
2022-12-31T12:39:37.449Z,14.14
2022-12-31T12:45:05.182Z,13.84
2022-12-31T12:46:18.260Z,13.76
2022-12-31T12:47:19.819Z,13.93
2022-12-31T12:48:30.681Z,13.82
2022-12-31T12:49:38.455Z,13.95
2022-12-31T12:50:44.709Z,14.01
2022-12-31T12:52:02.977Z,14.02
2022-12-31T12:53:18.100Z,14.01
2022-12-31T12:54:35.056Z,13.85
2022-12-31T12:55:46.732Z,14.15
2022-12-31T12:56:55.697Z,13.99
2022-12-31T12:58:04.030Z,14.07
2022-12-31T12:59:34.978Z,14.02
2022-12-31T13:00:43.766Z,13.95
2022-12-31T13:01:54.963Z,13.87
2022-12-31T13:03:13.321Z,13.91
2022-12-31T13:04:41.672Z,13.96
2022-12-31T13:05:55.968Z,13.97
2022-12-31T13:07:09.755Z,13.94
2022-12-31T13:08:25.620Z,14.01
2022-12-31T13:09:42.322Z,14.07
2022-12-31T13:11:00.803Z,14.01
2022-12-31T13:12:13.935Z,14.13
2022-12-31T13:13:26.905Z,14.10
2022-12-31T13:14:34.174Z,13.93
2022-12-31T13:15:44.267Z,14.10
2022-12-31T13:16:55.212Z,14.09
2022-12-31T13:18:07.912Z,14.06
2022-12-31T13:19:16.355Z,14.09
2022-12-31T13:20:28.989Z,14.12
2022-12-31T13:21:37.152Z,13.97
2022-12-31T13:22:56.130Z,14.14
2022-12-31T13:27:00.561Z,14.01
2022-12-31T13:28:05.060Z,14.02
2022-12-31T13:29:15.449Z,14.00
2022-12-31T13:30:19.262Z,13.99
2022-12-31T13:31:26.278Z,14.06
2022-12-31T13:32:38.997Z,13.99
2022-12-31T13:33:43.762Z,14.11
2022-12-31T13:34:48.089Z,13.97
2022-12-31T13:35:53.515Z,14.07
2022-12-31T13:36:58.705Z,14.00
2022-12-31T13:38:05.852Z,14.15
2022-12-31T13:39:15.129Z,14.08
2022-12-31T13:40:21.054Z,14.02
2022-12-31T13:41:27.386Z,13.94
2022-12-31T13:42:39.257Z,14.01
2022-12-31T13:43:50.870Z,13.84
2022-12-31T13:44:55.970Z,13.92
2022-12-31T13:46:03.851Z,13.74
2022-12-31T13:47:12.394Z,13.87
2022-12-31T13:48:20.078Z,13.77
2022-12-31T13:49:26.706Z,13.86
2022-12-31T13:50:31.652Z,13.92
2022-12-31T13:51:40.478Z,13.94
2022-12-31T13:52:48.682Z,13.88
2022-12-31T13:53:59.824Z,13.76
2022-12-31T13:55:09.446Z,13.93
2022-12-31T13:56:14.683Z,13.92
2022-12-31T13:57:29.938Z,13.84
2022-12-31T13:58:39.622Z,13.93
2022-12-31T13:59:45.454Z,13.78
2022-12-31T14:00:50.450Z,13.64
2022-12-31T14:01:57.865Z,13.76
2022-12-31T14:03:10.238Z,13.87
2022-12-31T14:04:16.585Z,13.87
2022-12-31T14:05:23.228Z,13.92
2022-12-31T14:06:32.623Z,13.73
2022-12-31T14:07:45.345Z,13.82
2022-12-31T14:08:47.377Z,13.82
2022-12-31T14:09:49.363Z,13.79
2022-12-31T14:11:00.388Z,13.82
2022-12-31T14:12:18.340Z,13.66
2022-12-31T14:13:34.828Z,13.78
2022-12-31T14:14:46.031Z,13.63
2022-12-31T14:16:05.002Z,13.79
2022-12-31T14:17:15.980Z,13.69
2022-12-31T14:18:26.998Z,13.69
2022-12-31T14:19:48.613Z,13.62
2022-12-31T14:21:05.877Z,13.58
2022-12-31T14:22:16.085Z,13.59
2022-12-31T14:23:56.212Z,13.48
2022-12-31T14:24:59.744Z,13.49
2022-12-31T14:26:04.452Z,13.55
2022-12-31T14:27:12.622Z,13.53
2022-12-31T14:28:19.037Z,13.33
2022-12-31T14:29:31.308Z,13.42
2022-12-31T14:30:39.688Z,13.33
2022-12-31T14:32:03.789Z,13.48
2022-12-31T14:33:30.142Z,13.45
2022-12-31T14:34:39.231Z,13.46
2022-12-31T14:35:52.256Z,13.47
2022-12-31T14:37:04.816Z,13.40
2022-12-31T14:38:18.100Z,13.43
2022-12-31T14:39:32.662Z,13.49
2022-12-31T14:40:45.543Z,13.42
2022-12-31T14:42:01.967Z,13.42
2022-12-31T14:43:15.493Z,13.40
2022-12-31T14:44:32.202Z,13.41
2022-12-31T14:45:49.983Z,13.42
2022-12-31T14:47:04.411Z,13.28
2022-12-31T14:48:21.555Z,13.32
2022-12-31T14:49:36.247Z,13.33
2022-12-31T14:50:38.017Z,13.36
2022-12-31T14:51:39.580Z,13.26
2022-12-31T14:52:50.302Z,13.15
2022-12-31T14:53:52.733Z,13.32
2022-12-31T14:54:59.122Z,13.33
2022-12-31T14:56:03.680Z,13.33
2022-12-31T14:57:23.827Z,13.25
2022-12-31T14:58:32.315Z,13.34
2022-12-31T14:59:40.086Z,13.16
2022-12-31T15:00:53.968Z,13.29
2022-12-31T15:01:57.001Z,13.24
2022-12-31T15:03:01.136Z,13.26
2022-12-31T15:04:13.480Z,13.31
2022-12-31T15:05:17.390Z,13.13
2022-12-31T15:06:47.831Z,13.16